createdAt,value
2022-10-18T00:00:24.556Z,6.30
2022-10-18T00:03:13.816Z,6.47
2022-10-18T00:06:04.263Z,6.55
2022-10-18T00:08:53.656Z,6.32
2022-10-18T00:11:42.991Z,6.25
2022-10-18T00:14:32.527Z,6.00
2022-10-18T00:17:21.794Z,6.32
2022-10-18T00:20:12.251Z,6.03
2022-10-18T00:23:01.490Z,6.13
2022-10-18T00:25:50.802Z,6.82
2022-10-18T00:28:41.073Z,6.07
2022-10-18T00:31:38.458Z,6.05
2022-10-18T00:34:27.789Z,5.55
2022-10-18T00:37:17.394Z,5.82
2022-10-18T00:40:07.373Z,6.75
2022-10-18T00:42:56.709Z,6.10
2022-10-18T00:45:46.017Z,6.22
2022-10-18T00:48:35.384Z,5.95
2022-10-18T00:51:30.109Z,6.70
2022-10-18T00:54:22.098Z,5.95
2022-10-18T00:57:12.877Z,6.25
2022-10-18T01:00:04.873Z,5.85
2022-10-18T01:02:54.247Z,5.75
2022-10-18T01:05:47.841Z,6.00
2022-10-18T01:08:56.714Z,5.90
2022-10-18T01:12:01.717Z,6.13
2022-10-18T01:15:16.323Z,6.55
2022-10-18T01:18:29.591Z,5.93
2022-10-18T01:21:37.361Z,6.22
2022-10-18T01:24:52.333Z,6.50
2022-10-18T01:27:54.561Z,6.03
2022-10-18T01:31:03.304Z,6.10
2022-10-18T01:33:59.407Z,6.30
2022-10-18T01:36:52.361Z,6.03
2022-10-18T01:39:44.935Z,5.88
2022-10-18T01:42:35.060Z,6.30
2022-10-18T01:45:26.236Z,5.82
2022-10-18T01:48:16.112Z,6.43
2022-10-18T01:51:06.506Z,5.40
2022-10-18T01:53:56.236Z,5.90
2022-10-18T01:56:52.978Z,6.60
2022-10-18T02:00:08.471Z,5.97
2022-10-18T02:03:08.232Z,6.05
2022-10-18T02:06:09.157Z,5.90
2022-10-18T02:09:14.018Z,6.45
2022-10-18T02:12:04.810Z,5.97
2022-10-18T02:14:55.514Z,6.30
2022-10-18T02:17:47.855Z,6.05
2022-10-18T02:20:39.509Z,6.18
2022-10-18T02:23:29.487Z,6.35
2022-10-18T02:26:18.880Z,6.13
2022-10-18T02:29:08.901Z,5.68
2022-10-18T02:32:19.879Z,6.20
2022-10-18T02:35:21.204Z,6.18
2022-10-18T02:38:12.357Z,5.68
2022-10-18T02:41:02.264Z,5.72
2022-10-18T02:43:51.878Z,6.05
2022-10-18T02:46:42.840Z,5.53
2022-10-18T02:49:32.416Z,5.80
2022-10-18T02:52:21.815Z,6.22
2022-10-18T02:55:11.851Z,6.13
2022-10-18T02:58:01.486Z,6.05
2022-10-18T03:00:54.212Z,6.30
2022-10-18T03:03:43.684Z,5.53
2022-10-18T03:06:33.750Z,6.05
2022-10-18T03:09:23.317Z,5.75
2022-10-18T03:12:12.947Z,5.68
2022-10-18T03:15:02.455Z,5.63
2022-10-18T03:17:52.658Z,5.50
2022-10-18T03:20:42.528Z,5.50
2022-10-18T03:23:31.934Z,5.50
2022-10-18T03:26:22.590Z,5.80
2022-10-18T03:29:12.624Z,5.88
2022-10-18T03:32:02.135Z,6.00
2022-10-18T03:34:51.641Z,5.45
2022-10-18T03:37:41.319Z,5.95
2022-10-18T03:43:20.166Z,5.97
2022-10-18T03:46:10.910Z,6.07
2022-10-18T03:49:00.214Z,5.65
2022-10-18T03:51:49.523Z,5.85
2022-10-18T03:54:39.356Z,5.63
2022-10-18T03:57:28.797Z,5.68
2022-10-18T04:00:18.494Z,6.05
2022-10-18T04:03:07.730Z,5.95
2022-10-18T04:05:58.002Z,5.82
2022-10-18T04:08:47.378Z,5.78
2022-10-18T04:11:36.904Z,5.95
2022-10-18T04:14:26.209Z,6.13
2022-10-18T04:17:15.699Z,5.75
2022-10-18T04:20:05.222Z,5.38
2022-10-18T04:22:56.527Z,6.32
2022-10-18T04:25:45.964Z,6.03
2022-10-18T04:28:36.412Z,5.72
2022-10-18T04:31:25.702Z,6.25
2022-10-18T04:34:15.386Z,6.28
2022-10-18T04:37:04.610Z,6.07
2022-10-18T04:39:54.177Z,6.15
2022-10-18T04:42:43.728Z,5.88
2022-10-18T04:45:33.334Z,5.25
2022-10-18T04:48:22.759Z,5.60
2022-10-18T04:51:12.296Z,6.35
2022-10-18T04:54:01.675Z,6.00
2022-10-18T04:56:51.308Z,5.80
2022-10-18T04:59:40.830Z,6.10
2022-10-18T05:02:30.485Z,5.85
2022-10-18T05:05:19.965Z,5.80
2022-10-18T05:08:09.314Z,5.93
2022-10-18T05:10:59.195Z,5.60
2022-10-18T05:13:50.906Z,5.95
2022-10-18T05:16:40.734Z,6.03
2022-10-18T05:19:30.187Z,5.80
2022-10-18T05:22:19.466Z,6.00
2022-10-18T05:25:09.635Z,6.25
2022-10-18T05:28:00.934Z,5.55
2022-10-18T05:30:52.549Z,5.78
2022-10-18T05:33:43.770Z,5.93
2022-10-18T05:36:33.159Z,6.13
2022-10-18T05:39:22.448Z,6.13
2022-10-18T05:42:12.872Z,6.35
2022-10-18T05:45:02.239Z,5.72
2022-10-18T05:47:51.631Z,6.03
2022-10-18T05:50:40.906Z,6.05
2022-10-18T05:53:38.334Z,6.68
2022-10-18T05:56:27.997Z,6.55
2022-10-18T05:59:17.544Z,6.10
2022-10-18T06:02:06.901Z,6.07
2022-10-18T06:04:56.369Z,5.88
2022-10-18T06:07:45.639Z,5.95
2022-10-18T06:10:34.922Z,5.60
2022-10-18T06:13:24.534Z,6.00
2022-10-18T06:16:15.087Z,5.85
2022-10-18T06:19:04.422Z,5.80
2022-10-18T06:21:54.036Z,5.82
2022-10-18T06:24:44.587Z,5.65
2022-10-18T06:27:35.960Z,5.55
2022-10-18T06:30:25.316Z,6.20
2022-10-18T06:33:14.678Z,5.70
2022-10-18T06:36:06.827Z,5.75
2022-10-18T06:38:57.770Z,6.50
2022-10-18T06:41:47.332Z,6.18
2022-10-18T06:44:41.775Z,6.03
2022-10-18T06:47:31.147Z,5.75
2022-10-18T06:50:21.774Z,6.45
2022-10-18T06:53:11.367Z,6.55
2022-10-18T06:56:06.115Z,5.97
2022-10-18T06:58:55.669Z,5.82
2022-10-18T07:01:45.527Z,6.43
2022-10-18T07:04:34.968Z,6.55
2022-10-18T07:07:24.186Z,6.55
2022-10-18T07:10:13.562Z,5.82
2022-10-18T07:13:27.409Z,6.45
2022-10-18T07:16:18.548Z,6.60
2022-10-18T07:19:08.156Z,5.95
2022-10-18T07:21:57.453Z,6.70
2022-10-18T07:24:46.829Z,6.10
2022-10-18T07:27:40.835Z,6.35
2022-10-18T07:30:30.256Z,6.35
2022-10-18T07:33:21.042Z,6.32
2022-10-18T07:36:12.149Z,6.60
2022-10-18T07:39:01.510Z,6.53
2022-10-18T07:41:51.128Z,7.05
2022-10-18T07:44:41.127Z,6.28
2022-10-18T07:47:32.811Z,5.93
2022-10-18T07:50:27.762Z,6.78
2022-10-18T07:56:16.847Z,6.18
2022-10-18T07:59:06.434Z,6.60
2022-10-18T08:01:55.727Z,6.65
2022-10-18T08:04:45.316Z,6.47
2022-10-18T08:07:35.449Z,6.38
2022-10-18T08:10:27.854Z,6.10
2022-10-18T08:13:17.782Z,6.90
2022-10-18T08:16:09.883Z,6.57
2022-10-18T08:19:00.084Z,7.00
2022-10-18T08:21:49.540Z,6.22
2022-10-18T08:24:38.983Z,6.50
2022-10-18T08:27:28.370Z,6.57
2022-10-18T08:30:17.782Z,6.53
2022-10-18T08:33:07.201Z,6.40
2022-10-18T08:36:00.629Z,6.32
2022-10-18T08:38:50.443Z,6.28
2022-10-18T08:41:39.718Z,6.55
2022-10-18T08:44:36.281Z,6.50
2022-10-18T08:47:40.287Z,6.82
2022-10-18T08:50:36.577Z,7.10
2022-10-18T08:54:01.437Z,6.50
2022-10-18T08:57:02.794Z,6.40
2022-10-18T08:59:52.360Z,6.20
2022-10-18T09:03:11.780Z,6.35
2022-10-18T09:06:25.597Z,6.00
2022-10-18T09:09:31.802Z,6.78
2022-10-18T09:12:50.605Z,7.15
2022-10-18T09:15:54.021Z,6.72
2022-10-18T09:18:58.416Z,6.80
2022-10-18T09:21:58.102Z,6.60
2022-10-18T09:25:18.032Z,6.47
2022-10-18T09:28:44.805Z,6.25
2022-10-18T09:31:51.622Z,7.22
2022-10-18T09:34:49.140Z,7.22
2022-10-18T09:37:38.833Z,6.30
2022-10-18T09:40:31.785Z,6.90
2022-10-18T09:43:26.127Z,7.28
2022-10-18T09:46:17.029Z,5.95
2022-10-18T09:49:16.372Z,6.20
2022-10-18T09:52:10.218Z,6.43
2022-10-18T09:55:04.637Z,6.55
2022-10-18T09:58:01.697Z,6.72
2022-10-18T10:00:54.155Z,6.70
2022-10-18T10:03:44.272Z,6.88
2022-10-18T10:06:39.769Z,6.93
2022-10-18T10:09:59.626Z,6.93
2022-10-18T10:12:50.042Z,7.00
2022-10-18T10:15:42.407Z,7.28
2022-10-18T10:18:41.457Z,7.18
2022-10-18T10:21:31.002Z,7.15
2022-10-18T10:24:34.003Z,6.72
2022-10-18T10:27:45.439Z,7.32
2022-10-18T10:30:37.296Z,6.90
2022-10-18T10:33:47.917Z,6.50
2022-10-18T10:36:56.619Z,7.70
2022-10-18T10:40:00.708Z,7.28
2022-10-18T10:43:18.061Z,7.40
2022-10-18T10:46:16.744Z,6.78
2022-10-18T10:52:28.085Z,7.13
2022-10-18T10:55:35.593Z,6.93
2022-10-18T10:58:26.094Z,6.93
2022-10-18T11:01:34.475Z,7.15
2022-10-18T11:04:30.053Z,7.50
2022-10-18T11:07:29.150Z,7.20
2022-10-18T11:10:23.113Z,6.70
2022-10-18T11:13:42.506Z,7.85
2022-10-18T11:16:43.414Z,6.90
2022-10-18T11:20:02.461Z,6.90
2022-10-18T11:22:57.937Z,6.70
2022-10-18T11:26:14.739Z,6.80
2022-10-18T11:29:27.678Z,6.50
2022-10-18T11:32:16.996Z,7.45
2022-10-18T11:35:32.574Z,7.20
2022-10-18T11:38:39.946Z,6.97
2022-10-18T11:41:34.754Z,7.00
2022-10-18T11:44:28.724Z,7.10
2022-10-18T11:47:20.837Z,6.93
2022-10-18T11:50:38.343Z,6.70
2022-10-18T11:53:52.113Z,6.90
2022-10-18T11:56:46.339Z,6.30
2022-10-18T11:59:52.546Z,7.35
2022-10-18T12:02:42.121Z,7.03
2022-10-18T12:05:33.284Z,6.70
2022-10-18T12:08:33.162Z,7.20
2022-10-18T12:11:33.059Z,6.35
2022-10-18T12:14:38.276Z,6.93
2022-10-18T12:17:43.988Z,6.90
2022-10-18T12:20:44.670Z,10.48
2022-10-18T12:23:48.249Z,12.88
2022-10-18T12:26:38.243Z,14.27
2022-10-18T12:29:33.331Z,11.38
2022-10-18T12:32:29.114Z,6.50
2022-10-18T12:35:20.602Z,7.05
2022-10-18T12:38:29.992Z,9.40
2022-10-18T12:41:29.802Z,7.70
2022-10-18T12:44:35.010Z,7.10
2022-10-18T12:47:26.680Z,7.50
2022-10-18T12:50:31.030Z,7.68
2022-10-18T12:53:27.708Z,7.90
2022-10-18T12:56:38.677Z,6.97
2022-10-18T12:59:28.026Z,7.15
2022-10-18T13:02:28.402Z,7.50
2022-10-18T13:05:56.516Z,6.90
2022-10-18T13:08:47.085Z,7.70
2022-10-18T13:11:37.329Z,7.38
2022-10-18T13:14:31.714Z,7.85
2022-10-18T13:17:31.903Z,7.25
2022-10-18T13:20:33.557Z,7.45
2022-10-18T13:23:37.112Z,7.30
2022-10-18T13:27:04.029Z,10.95
2022-10-18T13:30:20.174Z,7.07
2022-10-18T13:33:28.838Z,7.13
2022-10-18T13:36:23.420Z,7.13
2022-10-18T13:39:21.863Z,6.93
2022-10-18T13:42:17.551Z,6.97
2022-10-18T13:45:34.418Z,7.32
2022-10-18T13:48:33.831Z,7.28
2022-10-18T13:51:37.004Z,6.95
2022-10-18T13:54:53.937Z,8.00
2022-10-18T13:57:55.044Z,7.40
2022-10-18T14:01:06.231Z,6.80
2022-10-18T14:04:26.906Z,6.85
2022-10-18T14:07:19.607Z,6.78
2022-10-18T14:13:05.702Z,6.85
2022-10-18T14:16:00.607Z,7.18
2022-10-18T14:18:54.110Z,7.05
2022-10-18T14:21:52.162Z,6.88
2022-10-18T14:24:46.491Z,7.57
2022-10-18T14:27:36.106Z,7.40
2022-10-18T14:30:26.311Z,6.45
2022-10-18T14:33:26.282Z,7.70
2022-10-18T14:36:19.705Z,7.45
2022-10-18T14:39:20.967Z,7.38
2022-10-18T14:42:22.250Z,7.47
2022-10-18T14:45:21.488Z,7.32
2022-10-18T14:48:23.947Z,7.13
2022-10-18T14:51:15.718Z,6.80
2022-10-18T14:54:05.235Z,7.13
2022-10-18T14:56:56.670Z,7.53
2022-10-18T14:59:56.679Z,7.30
2022-10-18T15:02:46.117Z,7.03
2022-10-18T15:05:35.502Z,6.78
2022-10-18T15:08:28.162Z,7.60
2022-10-18T15:11:18.288Z,7.03
2022-10-18T15:14:14.391Z,7.00
2022-10-18T15:17:10.121Z,7.22
2022-10-18T15:20:05.900Z,7.15
2022-10-18T15:23:16.422Z,7.47
2022-10-18T15:26:12.561Z,6.70
2022-10-18T15:29:04.522Z,7.10
2022-10-18T15:31:56.495Z,6.70
2022-10-18T15:34:47.044Z,7.65
2022-10-18T15:37:45.711Z,8.15
2022-10-18T15:40:37.547Z,6.88
2022-10-18T15:43:30.256Z,6.87
2022-10-18T15:46:33.621Z,7.40
2022-10-18T15:49:25.909Z,7.07
2022-10-18T15:52:38.669Z,7.57
2022-10-18T15:58:22.576Z,7.50
2022-10-18T16:01:21.560Z,6.55
2022-10-18T16:04:24.650Z,7.72
2022-10-18T16:10:02.836Z,7.03
2022-10-18T16:12:52.232Z,7.53
2022-10-18T16:15:42.699Z,7.07
2022-10-18T16:18:32.163Z,7.70
2022-10-18T16:21:29.700Z,7.47
2022-10-18T16:24:19.721Z,7.18
2022-10-18T16:27:11.014Z,7.50
2022-10-18T16:30:00.321Z,7.00
2022-10-18T16:32:50.018Z,6.75
2022-10-18T16:35:39.522Z,7.45
2022-10-18T16:38:34.169Z,6.88
2022-10-18T16:41:25.066Z,7.28
2022-10-18T16:44:15.133Z,7.22
2022-10-18T16:47:04.709Z,7.50
2022-10-18T16:49:53.956Z,7.15
2022-10-18T16:52:43.536Z,7.10
2022-10-18T16:55:32.762Z,6.95
2022-10-18T17:01:33.772Z,7.55
2022-10-18T17:04:23.094Z,6.95
2022-10-18T17:07:24.518Z,6.97
2022-10-18T17:10:15.963Z,7.07
2022-10-18T17:13:05.402Z,7.45
2022-10-18T17:15:55.029Z,7.47
2022-10-18T17:18:44.410Z,7.20
2022-10-18T17:21:36.906Z,7.65
2022-10-18T17:24:26.194Z,6.97
2022-10-18T17:27:15.842Z,6.72
2022-10-18T17:30:05.836Z,7.15
2022-10-18T17:32:55.516Z,7.40
2022-10-18T17:35:46.106Z,7.22
2022-10-18T17:38:36.750Z,7.28
2022-10-18T17:41:26.346Z,7.10
2022-10-18T17:44:15.669Z,6.80
2022-10-18T17:47:04.975Z,7.07
2022-10-18T17:49:54.164Z,7.05
2022-10-18T17:52:45.057Z,7.03
2022-10-18T17:55:36.069Z,6.72
2022-10-18T17:58:25.592Z,7.00
2022-10-18T18:01:17.770Z,7.03
2022-10-18T18:04:07.232Z,6.60
2022-10-18T18:06:58.127Z,7.10
2022-10-18T18:09:47.498Z,6.38
2022-10-18T18:12:36.901Z,6.53
2022-10-18T18:15:26.218Z,6.57
2022-10-18T18:18:15.782Z,6.53
2022-10-18T18:21:05.280Z,6.63
2022-10-18T18:23:55.828Z,6.63
2022-10-18T18:26:45.110Z,6.90
2022-10-18T18:29:34.668Z,6.35
2022-10-18T18:32:24.314Z,6.32
2022-10-18T18:35:14.111Z,6.43
2022-10-18T18:41:15.546Z,6.82
2022-10-18T18:44:07.171Z,6.65
2022-10-18T18:46:56.695Z,6.50
2022-10-18T18:49:45.978Z,7.03
2022-10-18T18:52:35.707Z,6.47
2022-10-18T18:55:25.147Z,6.63
2022-10-18T18:58:14.609Z,7.10
2022-10-18T19:01:19.466Z,6.57
2022-10-18T19:04:11.382Z,6.70
2022-10-18T19:07:00.688Z,7.10
2022-10-18T19:09:51.719Z,7.32
2022-10-18T19:12:42.163Z,6.53
2022-10-18T19:15:31.670Z,7.00
2022-10-18T19:18:24.511Z,6.55
2022-10-18T19:21:14.174Z,6.78
2022-10-18T19:24:04.957Z,6.65
2022-10-18T19:26:58.454Z,7.32
2022-10-18T19:29:49.727Z,6.95
2022-10-18T19:32:38.984Z,7.45
2022-10-18T19:35:28.242Z,6.97
2022-10-18T19:38:17.510Z,7.00
2022-10-18T19:41:06.922Z,6.90
2022-10-18T19:43:57.126Z,7.35
2022-10-18T19:46:46.725Z,6.72
2022-10-18T19:49:36.049Z,6.60
2022-10-18T19:52:25.321Z,6.60
2022-10-18T19:55:14.668Z,7.22
2022-10-18T19:58:04.054Z,6.53
2022-10-18T20:00:56.932Z,7.07
2022-10-18T20:03:46.577Z,6.57
2022-10-18T20:06:37.353Z,6.80
2022-10-18T20:09:26.938Z,6.75
2022-10-18T20:12:16.232Z,6.70
2022-10-18T20:15:06.662Z,6.82
2022-10-18T20:17:57.547Z,6.78
2022-10-18T20:20:48.327Z,6.60
2022-10-18T20:23:39.768Z,6.53
2022-10-18T20:26:29.190Z,6.63
2022-10-18T20:29:18.643Z,6.68
2022-10-18T20:32:07.854Z,6.43
2022-10-18T20:34:57.291Z,6.38
2022-10-18T20:37:46.574Z,6.65
2022-10-18T20:40:35.989Z,6.70
2022-10-18T20:43:25.521Z,6.88
2022-10-18T20:46:14.791Z,6.63
2022-10-18T20:49:06.229Z,6.75
2022-10-18T20:51:55.700Z,6.53
2022-10-18T20:54:45.094Z,7.18
2022-10-18T20:57:36.538Z,6.10
2022-10-18T21:00:26.185Z,6.70
2022-10-18T21:03:15.358Z,6.68
2022-10-18T21:06:12.957Z,6.18
2022-10-18T21:09:05.489Z,6.32
2022-10-18T21:11:55.627Z,6.57
2022-10-18T21:14:44.910Z,6.07
2022-10-18T21:17:34.192Z,6.57
2022-10-18T21:20:23.591Z,6.57
2022-10-18T21:23:12.860Z,7.10
2022-10-18T21:26:02.108Z,7.00
2022-10-18T21:28:57.797Z,6.28
2022-10-18T21:31:47.529Z,6.60
2022-10-18T21:34:36.869Z,6.78
2022-10-18T21:37:26.310Z,6.63
2022-10-18T21:40:15.680Z,6.68
2022-10-18T21:43:04.918Z,6.88
2022-10-18T21:46:01.684Z,6.60
2022-10-18T21:48:53.029Z,6.82
2022-10-18T21:51:42.661Z,6.90
2022-10-18T21:54:32.904Z,7.38
2022-10-18T21:57:22.200Z,6.60
2022-10-18T22:00:12.647Z,6.93
2022-10-18T22:03:12.691Z,7.35
2022-10-18T22:06:03.869Z,6.97
2022-10-18T22:08:58.036Z,6.95
2022-10-18T22:11:52.221Z,7.22
2022-10-18T22:14:41.634Z,7.13
2022-10-18T22:17:31.155Z,8.13
2022-10-18T22:20:20.929Z,7.65
2022-10-18T22:23:12.119Z,8.60
2022-10-18T22:26:09.828Z,8.02
2022-10-18T22:29:02.106Z,8.50
2022-10-18T22:31:53.754Z,7.63
2022-10-18T22:34:43.356Z,8.43
2022-10-18T22:37:32.970Z,8.02
2022-10-18T22:40:22.451Z,7.80
2022-10-18T22:43:11.830Z,7.90
2022-10-18T22:46:05.818Z,8.13
2022-10-18T22:48:55.231Z,7.63
2022-10-18T22:51:44.618Z,8.48
2022-10-18T22:54:34.103Z,7.60
2022-10-18T22:57:23.923Z,7.72
2022-10-18T23:00:14.026Z,7.10
2022-10-18T23:03:03.350Z,8.20
2022-10-18T23:05:53.082Z,7.80
2022-10-18T23:08:43.047Z,8.18
2022-10-18T23:11:32.729Z,8.43
2022-10-18T23:14:22.183Z,8.05
2022-10-18T23:17:11.603Z,7.15
2022-10-18T23:20:00.914Z,8.65
2022-10-18T23:22:50.268Z,7.15
2022-10-18T23:25:40.353Z,7.68
2022-10-18T23:28:29.901Z,7.30
2022-10-18T23:31:21.835Z,6.78
2022-10-18T23:34:11.238Z,7.07
2022-10-18T23:37:00.513Z,7.13
2022-10-18T23:39:50.149Z,7.38
2022-10-18T23:42:39.707Z,7.38
2022-10-18T23:45:29.058Z,7.28
2022-10-18T23:48:18.582Z,7.18
2022-10-18T23:51:08.309Z,8.02
2022-10-18T23:53:57.614Z,7.43
2022-10-18T23:56:46.938Z,7.50
2022-10-18T23:59:36.147Z,7.68
